sensor_id;sensor_type;location;lat;lon;timestamp;temperature;humidity
63317;DHT22;49822;41.468;13.560;2022-07-26T00:01:00;25.40;77.70
63317;DHT22;49822;41.468;13.560;2022-07-26T00:03:49;25.40;78.10
63317;DHT22;49822;41.468;13.560;2022-07-26T00:06:38;25.50;76.80
63317;DHT22;49822;41.468;13.560;2022-07-26T00:09:25;25.40;77.80
63317;DHT22;49822;41.468;13.560;2022-07-26T00:12:13;24.80;80.80
63317;DHT22;49822;41.468;13.560;2022-07-26T00:15:04;24.80;80.70
63317;DHT22;49822;41.468;13.560;2022-07-26T00:17:53;25.00;79.40
63317;DHT22;49822;41.468;13.560;2022-07-26T00:20:40;25.00;79.10
63317;DHT22;49822;41.468;13.560;2022-07-26T00:23:28;24.80;80.50
63317;DHT22;49822;41.468;13.560;2022-07-26T00:26:16;24.80;79.90
63317;DHT22;49822;41.468;13.560;2022-07-26T00:29:04;24.80;80.60
63317;DHT22;49822;41.468;13.560;2022-07-26T00:31:52;24.40;83.30
63317;DHT22;49822;41.468;13.560;2022-07-26T00:34:40;24.40;83.10
63317;DHT22;49822;41.468;13.560;2022-07-26T00:37:28;24.30;82.20
63317;DHT22;49822;41.468;13.560;2022-07-26T00:40:16;24.20;81.60
63317;DHT22;49822;41.468;13.560;2022-07-26T00:43:04;24.10;81.70
63317;DHT22;49822;41.468;13.560;2022-07-26T00:45:51;24.40;80.50
63317;DHT22;49822;41.468;13.560;2022-07-26T00:48:39;24.50;79.50
63317;DHT22;49822;41.468;13.560;2022-07-26T00:51:28;24.70;78.60
63317;DHT22;49822;41.468;13.560;2022-07-26T00:54:16;24.90;78.60
63317;DHT22;49822;41.468;13.560;2022-07-26T00:57:04;24.90;77.60
63317;DHT22;49822;41.468;13.560;2022-07-26T00:59:52;24.60;77.60
63317;DHT22;49822;41.468;13.560;2022-07-26T01:02:40;24.30;79.50
63317;DHT22;49822;41.468;13.560;2022-07-26T01:05:28;24.40;78.80
63317;DHT22;49822;41.468;13.560;2022-07-26T01:08:16;24.40;78.80
63317;DHT22;49822;41.468;13.560;2022-07-26T01:11:04;24.40;78.30
63317;DHT22;49822;41.468;13.560;2022-07-26T01:13:52;24.50;78.00
63317;DHT22;49822;41.468;13.560;2022-07-26T01:16:40;24.60;77.50
63317;DHT22;49822;41.468;13.560;2022-07-26T01:19:27;24.50;77.30
63317;DHT22;49822;41.468;13.560;2022-07-26T01:22:15;24.40;77.30
63317;DHT22;49822;41.468;13.560;2022-07-26T01:25:03;24.50;77.10
63317;DHT22;49822;41.468;13.560;2022-07-26T01:27:52;24.50;76.50
63317;DHT22;49822;41.468;13.560;2022-07-26T01:30:40;24.40;76.60
63317;DHT22;49822;41.468;13.560;2022-07-26T01:33:28;24.20;78.60
63317;DHT22;49822;41.468;13.560;2022-07-26T01:36:16;24.20;79.20
63317;DHT22;49822;41.468;13.560;2022-07-26T01:39:04;24.00;81.00
63317;DHT22;49822;41.468;13.560;2022-07-26T01:41:52;23.70;80.50
63317;DHT22;49822;41.468;13.560;2022-07-26T01:44:40;23.10;84.30
63317;DHT22;49822;41.468;13.560;2022-07-26T01:47:28;23.00;87.00
63317;DHT22;49822;41.468;13.560;2022-07-26T01:50:16;23.20;87.30
63317;DHT22;49822;41.468;13.560;2022-07-26T01:53:04;23.40;85.50
63317;DHT22;49822;41.468;13.560;2022-07-26T01:55:52;23.60;83.60
63317;DHT22;49822;41.468;13.560;2022-07-26T01:58:41;23.80;81.10
63317;DHT22;49822;41.468;13.560;2022-07-26T02:01:28;24.00;80.60
63317;DHT22;49822;41.468;13.560;2022-07-26T02:04:26;24.00;80.00
63317;DHT22;49822;41.468;13.560;2022-07-26T02:07:37;23.90;80.60
63317;DHT22;49822;41.468;13.560;2022-07-26T02:10:25;23.80;82.00
63317;DHT22;49822;41.468;13.560;2022-07-26T02:13:40;23.70;81.80
63317;DHT22;49822;41.468;13.560;2022-07-26T02:16:28;23.80;79.60
63317;DHT22;49822;41.468;13.560;2022-07-26T02:19:16;23.90;78.80
63317;DHT22;49822;41.468;13.560;2022-07-26T02:22:04;24.00;78.00
63317;DHT22;49822;41.468;13.560;2022-07-26T02:24:52;24.20;78.20
63317;DHT22;49822;41.468;13.560;2022-07-26T02:27:40;24.20;78.00
63317;DHT22;49822;41.468;13.560;2022-07-26T02:30:28;24.30;77.90
63317;DHT22;49822;41.468;13.560;2022-07-26T02:33:16;24.20;77.70
63317;DHT22;49822;41.468;13.560;2022-07-26T02:36:04;24.20;77.10
63317;DHT22;49822;41.468;13.560;2022-07-26T02:38:52;23.70;78.00
63317;DHT22;49822;41.468;13.560;2022-07-26T02:41:40;23.10;82.20
63317;DHT22;49822;41.468;13.560;2022-07-26T02:44:28;22.50;86.30
63317;DHT22;49822;41.468;13.560;2022-07-26T02:47:16;22.10;88.90
63317;DHT22;49822;41.468;13.560;2022-07-26T02:50:04;22.10;91.00
63317;DHT22;49822;41.468;13.560;2022-07-26T02:52:53;22.20;88.90
63317;DHT22;49822;41.468;13.560;2022-07-26T02:55:41;22.40;88.70
63317;DHT22;49822;41.468;13.560;2022-07-26T02:58:28;22.40;89.20
63317;DHT22;49822;41.468;13.560;2022-07-26T03:01:16;22.70;86.30
63317;DHT22;49822;41.468;13.560;2022-07-26T03:04:04;23.00;83.20
63317;DHT22;49822;41.468;13.560;2022-07-26T03:06:54;22.90;82.90
63317;DHT22;49822;41.468;13.560;2022-07-26T03:09:42;23.00;82.20
63317;DHT22;49822;41.468;13.560;2022-07-26T03:12:30;23.20;81.60
63317;DHT22;49822;41.468;13.560;2022-07-26T03:15:18;23.40;80.70
63317;DHT22;49822;41.468;13.560;2022-07-26T03:18:05;23.40;79.80
63317;DHT22;49822;41.468;13.560;2022-07-26T03:20:53;23.40;79.40
63317;DHT22;49822;41.468;13.560;2022-07-26T03:23:41;23.10;80.20
63317;DHT22;49822;41.468;13.560;2022-07-26T03:26:29;22.70;84.20
63317;DHT22;49822;41.468;13.560;2022-07-26T03:29:17;22.60;85.90
63317;DHT22;49822;41.468;13.560;2022-07-26T03:32:05;22.90;86.50
63317;DHT22;49822;41.468;13.560;2022-07-26T03:34:52;23.10;84.90
63317;DHT22;49822;41.468;13.560;2022-07-26T03:37:40;23.20;84.80
63317;DHT22;49822;41.468;13.560;2022-07-26T03:40:32;23.30;83.30
63317;DHT22;49822;41.468;13.560;2022-07-26T03:43:21;23.40;82.00
63317;DHT22;49822;41.468;13.560;2022-07-26T03:46:09;23.40;81.60
63317;DHT22;49822;41.468;13.560;2022-07-26T03:48:57;23.60;81.00
63317;DHT22;49822;41.468;13.560;2022-07-26T03:51:45;23.60;80.00
63317;DHT22;49822;41.468;13.560;2022-07-26T03:54:33;23.50;80.70
63317;DHT22;49822;41.468;13.560;2022-07-26T03:57:20;23.40;81.50
63317;DHT22;49822;41.468;13.560;2022-07-26T04:00:09;23.30;81.40
63317;DHT22;49822;41.468;13.560;2022-07-26T04:02:57;23.00;85.50
63317;DHT22;49822;41.468;13.560;2022-07-26T04:05:44;22.70;87.90
63317;DHT22;49822;41.468;13.560;2022-07-26T04:08:35;22.70;86.70
63317;DHT22;49822;41.468;13.560;2022-07-26T04:11:23;22.90;85.40
63317;DHT22;49822;41.468;13.560;2022-07-26T04:14:15;23.10;87.90
63317;DHT22;49822;41.468;13.560;2022-07-26T04:17:02;23.10;90.50
63317;DHT22;49822;41.468;13.560;2022-07-26T04:19:50;23.10;86.40
63317;DHT22;49822;41.468;13.560;2022-07-26T04:22:39;23.20;86.10
63317;DHT22;49822;41.468;13.560;2022-07-26T04:25:27;23.30;84.90
63317;DHT22;49822;41.468;13.560;2022-07-26T04:28:27;23.40;82.90
63317;DHT22;49822;41.468;13.560;2022-07-26T04:31:15;23.50;82.00
63317;DHT22;49822;41.468;13.560;2022-07-26T04:34:03;23.50;81.50
63317;DHT22;49822;41.468;13.560;2022-07-26T04:36:51;23.60;80.80
63317;DHT22;49822;41.468;13.560;2022-07-26T04:39:39;23.70;80.70
63317;DHT22;49822;41.468;13.560;2022-07-26T04:42:27;23.90;79.60
63317;DHT22;49822;41.468;13.560;2022-07-26T04:45:15;23.90;78.90
63317;DHT22;49822;41.468;13.560;2022-07-26T04:48:03;23.90;78.70
63317;DHT22;49822;41.468;13.560;2022-07-26T04:50:51;23.90;79.00
63317;DHT22;49822;41.468;13.560;2022-07-26T04:53:39;23.70;79.50
63317;DHT22;49822;41.468;13.560;2022-07-26T04:56:27;23.70;79.70
63317;DHT22;49822;41.468;13.560;2022-07-26T04:59:15;23.70;79.60
63317;DHT22;49822;41.468;13.560;2022-07-26T05:02:08;23.70;79.00
63317;DHT22;49822;41.468;13.560;2022-07-26T05:04:56;23.80;79.60
63317;DHT22;49822;41.468;13.560;2022-07-26T05:07:46;23.80;77.30
63317;DHT22;49822;41.468;13.560;2022-07-26T05:10:36;23.90;77.60
63317;DHT22;49822;41.468;13.560;2022-07-26T05:13:24;24.20;78.00
63317;DHT22;49822;41.468;13.560;2022-07-26T05:16:17;24.20;78.10
63317;DHT22;49822;41.468;13.560;2022-07-26T05:19:04;24.20;78.60
63317;DHT22;49822;41.468;13.560;2022-07-26T05:21:52;24.40;78.80
63317;DHT22;49822;41.468;13.560;2022-07-26T05:24:40;24.60;80.10
63317;DHT22;49822;41.468;13.560;2022-07-26T05:27:27;24.80;79.60
63317;DHT22;49822;41.468;13.560;2022-07-26T05:30:15;25.00;79.10
63317;DHT22;49822;41.468;13.560;2022-07-26T05:33:03;25.00;78.50
63317;DHT22;49822;41.468;13.560;2022-07-26T05:35:50;25.20;77.80
63317;DHT22;49822;41.468;13.560;2022-07-26T05:38:38;25.30;77.60
63317;DHT22;49822;41.468;13.560;2022-07-26T05:41:26;25.50;78.10
63317;DHT22;49822;41.468;13.560;2022-07-26T05:44:14;25.60;77.20
63317;DHT22;49822;41.468;13.560;2022-07-26T05:47:01;25.80;76.90
63317;DHT22;49822;41.468;13.560;2022-07-26T05:49:49;25.90;77.50
63317;DHT22;49822;41.468;13.560;2022-07-26T05:52:37;26.00;76.80
63317;DHT22;49822;41.468;13.560;2022-07-26T05:55:24;26.10;76.30
63317;DHT22;49822;41.468;13.560;2022-07-26T05:58:18;26.30;76.20
63317;DHT22;49822;41.468;13.560;2022-07-26T06:01:06;26.20;76.50
63317;DHT22;49822;41.468;13.560;2022-07-26T06:03:54;26.20;76.60
63317;DHT22;49822;41.468;13.560;2022-07-26T06:06:41;26.10;76.80
63317;DHT22;49822;41.468;13.560;2022-07-26T06:09:29;26.00;77.10
63317;DHT22;49822;41.468;13.560;2022-07-26T06:12:17;26.00;77.20
63317;DHT22;49822;41.468;13.560;2022-07-26T06:15:05;26.00;77.60
63317;DHT22;49822;41.468;13.560;2022-07-26T06:18:02;26.00;77.70
63317;DHT22;49822;41.468;13.560;2022-07-26T06:20:49;26.20;77.20
63317;DHT22;49822;41.468;13.560;2022-07-26T06:23:37;26.10;77.10
63317;DHT22;49822;41.468;13.560;2022-07-26T06:26:25;26.10;77.30
63317;DHT22;49822;41.468;13.560;2022-07-26T06:29:13;26.40;76.20
63317;DHT22;49822;41.468;13.560;2022-07-26T06:32:00;26.40;75.90
63317;DHT22;49822;41.468;13.560;2022-07-26T06:34:48;26.50;75.10
63317;DHT22;49822;41.468;13.560;2022-07-26T06:37:37;26.40;75.80
63317;DHT22;49822;41.468;13.560;2022-07-26T06:40:25;26.50;75.10
63317;DHT22;49822;41.468;13.560;2022-07-26T06:43:13;26.40;75.20
63317;DHT22;49822;41.468;13.560;2022-07-26T06:46:01;26.40;74.90
63317;DHT22;49822;41.468;13.560;2022-07-26T06:48:49;26.40;75.10
63317;DHT22;49822;41.468;13.560;2022-07-26T06:51:42;26.60;74.80
63317;DHT22;49822;41.468;13.560;2022-07-26T06:54:55;26.90;73.40
63317;DHT22;49822;41.468;13.560;2022-07-26T06:57:46;27.10;72.40
63317;DHT22;49822;41.468;13.560;2022-07-26T07:00:36;27.20;71.80
63317;DHT22;49822;41.468;13.560;2022-07-26T07:03:24;27.40;71.10
63317;DHT22;49822;41.468;13.560;2022-07-26T07:06:15;27.50;71.00
63317;DHT22;49822;41.468;13.560;2022-07-26T07:09:03;27.70;69.90
63317;DHT22;49822;41.468;13.560;2022-07-26T07:11:54;27.60;69.80
63317;DHT22;49822;41.468;13.560;2022-07-26T07:14:52;27.80;69.50
63317;DHT22;49822;41.468;13.560;2022-07-26T07:17:40;28.00;68.70
63317;DHT22;49822;41.468;13.560;2022-07-26T07:20:28;28.00;68.70
63317;DHT22;49822;41.468;13.560;2022-07-26T07:23:18;27.90;69.10
63317;DHT22;49822;41.468;13.560;2022-07-26T07:26:08;27.90;69.20
63317;DHT22;49822;41.468;13.560;2022-07-26T07:28:56;28.20;68.50
63317;DHT22;49822;41.468;13.560;2022-07-26T07:31:47;28.50;67.20
63317;DHT22;49822;41.468;13.560;2022-07-26T07:34:36;28.60;67.20
63317;DHT22;49822;41.468;13.560;2022-07-26T07:37:24;28.80;66.10
63317;DHT22;49822;41.468;13.560;2022-07-26T07:40:12;28.90;65.60
63317;DHT22;49822;41.468;13.560;2022-07-26T07:43:00;28.90;65.40
63317;DHT22;49822;41.468;13.560;2022-07-26T07:45:47;28.90;65.00
63317;DHT22;49822;41.468;13.560;2022-07-26T07:48:36;29.00;64.50
63317;DHT22;49822;41.468;13.560;2022-07-26T07:51:31;29.30;64.10
63317;DHT22;49822;41.468;13.560;2022-07-26T07:54:22;29.30;62.80
63317;DHT22;49822;41.468;13.560;2022-07-26T07:57:11;29.20;63.30
63317;DHT22;49822;41.468;13.560;2022-07-26T08:00:00;29.30;63.30
63317;DHT22;49822;41.468;13.560;2022-07-26T08:02:57;29.40;63.00
63317;DHT22;49822;41.468;13.560;2022-07-26T08:05:48;29.50;62.70
63317;DHT22;49822;41.468;13.560;2022-07-26T08:08:37;29.50;61.60
63317;DHT22;49822;41.468;13.560;2022-07-26T08:11:25;29.30;62.80
63317;DHT22;49822;41.468;13.560;2022-07-26T08:14:16;29.40;62.50
63317;DHT22;49822;41.468;13.560;2022-07-26T08:17:04;29.50;62.00
63317;DHT22;49822;41.468;13.560;2022-07-26T08:19:51;29.90;61.60
63317;DHT22;49822;41.468;13.560;2022-07-26T08:22:46;30.20;60.00
63317;DHT22;49822;41.468;13.560;2022-07-26T08:25:34;30.50;59.50
63317;DHT22;49822;41.468;13.560;2022-07-26T08:28:21;30.60;58.90
63317;DHT22;49822;41.468;13.560;2022-07-26T08:31:30;30.80;58.00
63317;DHT22;49822;41.468;13.560;2022-07-26T08:34:18;30.80;57.80
63317;DHT22;49822;41.468;13.560;2022-07-26T08:37:08;30.70;57.90
63317;DHT22;49822;41.468;13.560;2022-07-26T08:40:06;30.90;58.20
63317;DHT22;49822;41.468;13.560;2022-07-26T08:42:55;31.10;58.00
63317;DHT22;49822;41.468;13.560;2022-07-26T08:45:43;31.10;56.70
63317;DHT22;49822;41.468;13.560;2022-07-26T08:48:32;31.00;56.60
63317;DHT22;49822;41.468;13.560;2022-07-26T08:51:25;30.70;56.30
63317;DHT22;49822;41.468;13.560;2022-07-26T08:54:14;30.80;57.30
63317;DHT22;49822;41.468;13.560;2022-07-26T08:57:02;31.00;56.10
63317;DHT22;49822;41.468;13.560;2022-07-26T09:00:17;31.30;55.80
63317;DHT22;49822;41.468;13.560;2022-07-26T09:03:05;31.50;55.50
63317;DHT22;49822;41.468;13.560;2022-07-26T09:05:53;31.80;54.50
63317;DHT22;49822;41.468;13.560;2022-07-26T09:08:41;31.60;54.30
63317;DHT22;49822;41.468;13.560;2022-07-26T09:11:31;31.30;55.20
63317;DHT22;49822;41.468;13.560;2022-07-26T09:14:19;31.60;54.90
63317;DHT22;49822;41.468;13.560;2022-07-26T09:17:07;31.50;55.70
63317;DHT22;49822;41.468;13.560;2022-07-26T09:20:10;31.80;54.20
63317;DHT22;49822;41.468;13.560;2022-07-26T09:23:09;32.00;54.30
63317;DHT22;49822;41.468;13.560;2022-07-26T09:26:03;32.00;53.40
63317;DHT22;49822;41.468;13.560;2022-07-26T09:29:09;31.60;54.90
63317;DHT22;49822;41.468;13.560;2022-07-26T09:32:30;31.80;54.50
63317;DHT22;49822;41.468;13.560;2022-07-26T09:38:49;32.20;52.80
63317;DHT22;49822;41.468;13.560;2022-07-26T09:41:36;32.50;53.00
63317;DHT22;49822;41.468;13.560;2022-07-26T09:44:25;32.80;51.90
63317;DHT22;49822;41.468;13.560;2022-07-26T09:47:13;33.00;51.60
63317;DHT22;49822;41.468;13.560;2022-07-26T09:50:16;33.20;50.60
63317;DHT22;49822;41.468;13.560;2022-07-26T09:53:09;33.20;50.20
63317;DHT22;49822;41.468;13.560;2022-07-26T09:55:57;33.20;51.20
63317;DHT22;49822;41.468;13.560;2022-07-26T09:58:46;33.20;50.70
63317;DHT22;49822;41.468;13.560;2022-07-26T10:01:34;33.30;50.10
63317;DHT22;49822;41.468;13.560;2022-07-26T10:04:23;33.10;50.70
63317;DHT22;49822;41.468;13.560;2022-07-26T10:07:11;33.30;50.30
63317;DHT22;49822;41.468;13.560;2022-07-26T10:10:09;33.50;49.30
63317;DHT22;49822;41.468;13.560;2022-07-26T10:12:59;33.40;49.10
63317;DHT22;49822;41.468;13.560;2022-07-26T10:15:52;33.10;49.80
63317;DHT22;49822;41.468;13.560;2022-07-26T10:18:42;32.80;50.70
63317;DHT22;49822;41.468;13.560;2022-07-26T10:21:32;32.60;51.40
63317;DHT22;49822;41.468;13.560;2022-07-26T10:24:24;32.70;51.10
63317;DHT22;49822;41.468;13.560;2022-07-26T10:27:37;32.40;51.40
63317;DHT22;49822;41.468;13.560;2022-07-26T10:30:26;32.20;52.20
63317;DHT22;49822;41.468;13.560;2022-07-26T10:33:23;32.10;52.20
63317;DHT22;49822;41.468;13.560;2022-07-26T10:36:27;32.20;51.90
63317;DHT22;49822;41.468;13.560;2022-07-26T10:39:21;31.80;53.00
63317;DHT22;49822;41.468;13.560;2022-07-26T10:42:10;31.80;52.60
63317;DHT22;49822;41.468;13.560;2022-07-26T10:45:19;32.20;51.90
63317;DHT22;49822;41.468;13.560;2022-07-26T10:51:27;31.90;51.30
63317;DHT22;49822;41.468;13.560;2022-07-26T10:54:15;32.00;52.70
63317;DHT22;49822;41.468;13.560;2022-07-26T10:57:04;32.30;51.60
63317;DHT22;49822;41.468;13.560;2022-07-26T10:59:52;32.20;51.90
63317;DHT22;49822;41.468;13.560;2022-07-26T11:02:47;31.80;52.90
63317;DHT22;49822;41.468;13.560;2022-07-26T11:05:35;32.00;53.70
63317;DHT22;49822;41.468;13.560;2022-07-26T11:08:28;32.00;54.40
63317;DHT22;49822;41.468;13.560;2022-07-26T11:11:30;31.90;54.40
63317;DHT22;49822;41.468;13.560;2022-07-26T11:14:18;32.40;53.70
63317;DHT22;49822;41.468;13.560;2022-07-26T11:17:06;32.10;53.50
63317;DHT22;49822;41.468;13.560;2022-07-26T11:19:54;32.00;53.10
63317;DHT22;49822;41.468;13.560;2022-07-26T11:22:42;32.20;53.80
63317;DHT22;49822;41.468;13.560;2022-07-26T11:25:30;32.10;54.00
63317;DHT22;49822;41.468;13.560;2022-07-26T11:28:18;32.10;54.00
63317;DHT22;49822;41.468;13.560;2022-07-26T11:31:09;32.20;53.40
63317;DHT22;49822;41.468;13.560;2022-07-26T11:34:02;32.30;53.80
63317;DHT22;49822;41.468;13.560;2022-07-26T11:36:59;32.60;52.70
63317;DHT22;49822;41.468;13.560;2022-07-26T11:39:47;32.40;52.70
63317;DHT22;49822;41.468;13.560;2022-07-26T11:42:35;32.20;52.20
63317;DHT22;49822;41.468;13.560;2022-07-26T11:45:22;32.20;52.70
63317;DHT22;49822;41.468;13.560;2022-07-26T11:48:10;32.20;52.40
63317;DHT22;49822;41.468;13.560;2022-07-26T11:51:12;32.20;51.10
63317;DHT22;49822;41.468;13.560;2022-07-26T11:54:02;32.20;52.00
63317;DHT22;49822;41.468;13.560;2022-07-26T11:56:52;32.40;52.20
63317;DHT22;49822;41.468;13.560;2022-07-26T11:59:40;32.20;51.60
63317;DHT22;49822;41.468;13.560;2022-07-26T12:02:30;32.20;52.10
63317;DHT22;49822;41.468;13.560;2022-07-26T12:05:20;32.20;51.80
63317;DHT22;49822;41.468;13.560;2022-07-26T12:08:08;32.20;51.90
63317;DHT22;49822;41.468;13.560;2022-07-26T12:10:57;32.30;52.40
63317;DHT22;49822;41.468;13.560;2022-07-26T12:13:59;32.50;51.60
63317;DHT22;49822;41.468;13.560;2022-07-26T12:16:47;32.40;51.10
63317;DHT22;49822;41.468;13.560;2022-07-26T12:19:36;32.20;51.50
63317;DHT22;49822;41.468;13.560;2022-07-26T12:22:23;32.20;51.20
63317;DHT22;49822;41.468;13.560;2022-07-26T12:25:12;32.40;51.20
63317;DHT22;49822;41.468;13.560;2022-07-26T12:28:10;32.50;50.00
63317;DHT22;49822;41.468;13.560;2022-07-26T12:30:57;32.40;50.70
63317;DHT22;49822;41.468;13.560;2022-07-26T12:33:49;32.40;50.70
63317;DHT22;49822;41.468;13.560;2022-07-26T12:36:37;32.50;50.40
63317;DHT22;49822;41.468;13.560;2022-07-26T12:39:24;32.80;49.30
63317;DHT22;49822;41.468;13.560;2022-07-26T12:42:23;32.50;49.50
63317;DHT22;49822;41.468;13.560;2022-07-26T12:45:25;32.70;49.50
63317;DHT22;49822;41.468;13.560;2022-07-26T12:48:13;32.60;49.50
63317;DHT22;49822;41.468;13.560;2022-07-26T12:51:00;32.30;50.00
63317;DHT22;49822;41.468;13.560;2022-07-26T12:53:48;32.20;50.40
63317;DHT22;49822;41.468;13.560;2022-07-26T12:56:36;32.50;49.90
63317;DHT22;49822;41.468;13.560;2022-07-26T12:59:24;32.50;49.60
63317;DHT22;49822;41.468;13.560;2022-07-26T13:02:11;32.40;49.90
63317;DHT22;49822;41.468;13.560;2022-07-26T13:05:00;32.40;50.90
63317;DHT22;49822;41.468;13.560;2022-07-26T13:07:50;32.60;50.10
63317;DHT22;49822;41.468;13.560;2022-07-26T13:10:40;33.00;49.40
63317;DHT22;49822;41.468;13.560;2022-07-26T13:13:28;32.40;51.10
63317;DHT22;49822;41.468;13.560;2022-07-26T13:16:16;32.20;50.70
63317;DHT22;49822;41.468;13.560;2022-07-26T13:19:05;32.00;51.50
63317;DHT22;49822;41.468;13.560;2022-07-26T13:21:55;32.10;51.60
63317;DHT22;49822;41.468;13.560;2022-07-26T13:24:43;32.20;51.10
63317;DHT22;49822;41.468;13.560;2022-07-26T13:27:32;32.10;51.00
63317;DHT22;49822;41.468;13.560;2022-07-26T13:30:22;32.10;51.50
63317;DHT22;49822;41.468;13.560;2022-07-26T13:33:11;32.40;50.40
63317;DHT22;49822;41.468;13.560;2022-07-26T13:35:58;32.30;50.70
63317;DHT22;49822;41.468;13.560;2022-07-26T13:38:46;31.90;51.60
63317;DHT22;49822;41.468;13.560;2022-07-26T13:41:34;32.00;51.90
63317;DHT22;49822;41.468;13.560;2022-07-26T13:44:23;32.00;52.20
63317;DHT22;49822;41.468;13.560;2022-07-26T13:47:11;31.70;52.90
63317;DHT22;49822;41.468;13.560;2022-07-26T13:49:59;31.70;53.20
63317;DHT22;49822;41.468;13.560;2022-07-26T13:52:47;31.60;53.90
63317;DHT22;49822;41.468;13.560;2022-07-26T13:55:34;31.60;53.90
63317;DHT22;49822;41.468;13.560;2022-07-26T13:58:22;31.40;54.90
63317;DHT22;49822;41.468;13.560;2022-07-26T14:01:10;31.40;55.50
63317;DHT22;49822;41.468;13.560;2022-07-26T14:03:58;31.30;56.20
63317;DHT22;49822;41.468;13.560;2022-07-26T14:06:46;31.10;56.40
63317;DHT22;49822;41.468;13.560;2022-07-26T14:09:34;31.20;56.30
63317;DHT22;49822;41.468;13.560;2022-07-26T14:12:21;31.10;56.70
63317;DHT22;49822;41.468;13.560;2022-07-26T14:15:09;31.30;56.70
63317;DHT22;49822;41.468;13.560;2022-07-26T14:18:04;30.90;57.70
63317;DHT22;49822;41.468;13.560;2022-07-26T14:20:52;30.90;57.90
63317;DHT22;49822;41.468;13.560;2022-07-26T14:23:40;30.90;57.80
63317;DHT22;49822;41.468;13.560;2022-07-26T14:26:28;30.70;58.30
63317;DHT22;49822;41.468;13.560;2022-07-26T14:29:16;30.80;57.90
63317;DHT22;49822;41.468;13.560;2022-07-26T14:32:04;30.70;58.30
63317;DHT22;49822;41.468;13.560;2022-07-26T14:34:52;30.80;58.50
63317;DHT22;49822;41.468;13.560;2022-07-26T14:37:39;30.70;58.40
63317;DHT22;49822;41.468;13.560;2022-07-26T14:40:31;30.60;58.80
63317;DHT22;49822;41.468;13.560;2022-07-26T14:43:19;30.60;58.70
63317;DHT22;49822;41.468;13.560;2022-07-26T14:46:08;30.70;58.70
63317;DHT22;49822;41.468;13.560;2022-07-26T14:48:56;30.70;58.50
63317;DHT22;49822;41.468;13.560;2022-07-26T14:51:44;30.50;59.20
63317;DHT22;49822;41.468;13.560;2022-07-26T14:54:34;30.30;60.00
63317;DHT22;49822;41.468;13.560;2022-07-26T14:57:21;30.30;59.80
63317;DHT22;49822;41.468;13.560;2022-07-26T15:00:13;30.50;59.90
63317;DHT22;49822;41.468;13.560;2022-07-26T15:03:01;30.50;59.60
63317;DHT22;49822;41.468;13.560;2022-07-26T15:05:48;30.40;60.20
63317;DHT22;49822;41.468;13.560;2022-07-26T15:08:36;30.40;60.00
63317;DHT22;49822;41.468;13.560;2022-07-26T15:11:24;30.40;60.20
63317;DHT22;49822;41.468;13.560;2022-07-26T15:14:13;30.10;60.90
63317;DHT22;49822;41.468;13.560;2022-07-26T15:17:01;30.30;60.60
63317;DHT22;49822;41.468;13.560;2022-07-26T15:19:48;30.40;60.70
63317;DHT22;49822;41.468;13.560;2022-07-26T15:22:36;30.10;61.50
63317;DHT22;49822;41.468;13.560;2022-07-26T15:25:24;30.20;61.00
63317;DHT22;49822;41.468;13.560;2022-07-26T15:28:11;30.20;61.30
63317;DHT22;49822;41.468;13.560;2022-07-26T15:30:59;30.10;61.80
63317;DHT22;49822;41.468;13.560;2022-07-26T15:33:47;30.10;61.90
63317;DHT22;49822;41.468;13.560;2022-07-26T15:36:35;30.00;62.40
63317;DHT22;49822;41.468;13.560;2022-07-26T15:39:25;29.90;62.90
63317;DHT22;49822;41.468;13.560;2022-07-26T15:42:13;29.90;62.70
63317;DHT22;49822;41.468;13.560;2022-07-26T15:45:02;30.00;62.40
63317;DHT22;49822;41.468;13.560;2022-07-26T15:47:55;30.10;62.30
63317;DHT22;49822;41.468;13.560;2022-07-26T15:51:02;30.10;61.80
63317;DHT22;49822;41.468;13.560;2022-07-26T15:53:50;30.00;62.50
63317;DHT22;49822;41.468;13.560;2022-07-26T15:56:38;30.00;62.30
63317;DHT22;49822;41.468;13.560;2022-07-26T15:59:26;30.10;61.90
63317;DHT22;49822;41.468;13.560;2022-07-26T16:02:13;30.00;62.30
63317;DHT22;49822;41.468;13.560;2022-07-26T16:05:03;29.90;62.60
63317;DHT22;49822;41.468;13.560;2022-07-26T16:07:51;30.00;62.10
63317;DHT22;49822;41.468;13.560;2022-07-26T16:10:39;29.90;62.50
63317;DHT22;49822;41.468;13.560;2022-07-26T16:13:26;29.90;62.50
63317;DHT22;49822;41.468;13.560;2022-07-26T16:16:14;29.70;62.50
63317;DHT22;49822;41.468;13.560;2022-07-26T16:19:02;29.60;63.00
63317;DHT22;49822;41.468;13.560;2022-07-26T16:21:50;29.60;63.30
63317;DHT22;49822;41.468;13.560;2022-07-26T16:24:37;29.50;63.60
63317;DHT22;49822;41.468;13.560;2022-07-26T16:27:25;29.50;63.30
63317;DHT22;49822;41.468;13.560;2022-07-26T16:30:14;29.50;63.40
63317;DHT22;49822;41.468;13.560;2022-07-26T16:33:02;29.60;63.10
63317;DHT22;49822;41.468;13.560;2022-07-26T16:35:50;29.60;63.20
63317;DHT22;49822;41.468;13.560;2022-07-26T16:38:38;29.50;63.60
63317;DHT22;49822;41.468;13.560;2022-07-26T16:41:26;29.40;63.70
63317;DHT22;49822;41.468;13.560;2022-07-26T16:44:15;29.50;63.60
63317;DHT22;49822;41.468;13.560;2022-07-26T16:47:03;29.50;63.80
63317;DHT22;49822;41.468;13.560;2022-07-26T16:49:51;29.40;63.90
63317;DHT22;49822;41.468;13.560;2022-07-26T16:52:38;29.30;64.10
63317;DHT22;49822;41.468;13.560;2022-07-26T16:55:27;29.40;64.00
63317;DHT22;49822;41.468;13.560;2022-07-26T16:58:14;29.30;64.00
63317;DHT22;49822;41.468;13.560;2022-07-26T17:01:03;29.30;64.10
63317;DHT22;49822;41.468;13.560;2022-07-26T17:03:50;29.20;64.10
63317;DHT22;49822;41.468;13.560;2022-07-26T17:06:38;29.10;64.20
63317;DHT22;49822;41.468;13.560;2022-07-26T17:09:26;29.20;64.20
63317;DHT22;49822;41.468;13.560;2022-07-26T17:12:14;29.20;63.80
63317;DHT22;49822;41.468;13.560;2022-07-26T17:15:03;29.10;64.00
63317;DHT22;49822;41.468;13.560;2022-07-26T17:17:51;29.20;63.90
63317;DHT22;49822;41.468;13.560;2022-07-26T17:20:38;29.20;64.00
63317;DHT22;49822;41.468;13.560;2022-07-26T17:23:26;29.10;63.70
63317;DHT22;49822;41.468;13.560;2022-07-26T17:26:15;29.00;64.10
63317;DHT22;49822;41.468;13.560;2022-07-26T17:29:03;29.00;63.90
63317;DHT22;49822;41.468;13.560;2022-07-26T17:31:52;29.10;63.60
63317;DHT22;49822;41.468;13.560;2022-07-26T17:34:41;29.10;63.30
63317;DHT22;49822;41.468;13.560;2022-07-26T17:37:30;29.00;63.30
63317;DHT22;49822;41.468;13.560;2022-07-26T17:40:20;28.90;63.40